Time;durP1;ratioP1;P1;durP2;ratioP2;P2;SDS_P1;SDS_P2;PMS_P1;PMS_P2;Temp;Humidity;BMP_temperature;BMP_pressure;BME280_temperature;BME280_humidity;BME280_pressure;Samples;Min_cycle;Max_cycle;Signal;HPM_P1;HPM_P2
2023/07/26 00:01:48;;;;;;;9.52;6.13;;;;;;;;;;4939694;29;20176;-86
2023/07/26 00:04:14;;;;;;;11.18;5.95;;;16.90;99.90;;;;;;4956487;29;20296;-86
2023/07/26 00:06:40;;;;;;;7.63;5.20;;;;;;;;;;4956454;29;20214;-86
2023/07/26 00:09:08;;;;;;;11.45;6.75;;;16.80;99.90;;;;;;4956330;29;20182;-86
2023/07/26 00:11:34;;;;;;;8.13;5.57;;;17.00;99.90;;;;;;4923518;29;20191;-86
2023/07/26 00:14:00;;;;;;;7.65;5.10;;;16.60;99.90;;;;;;4939382;29;20266;-85
2023/07/26 00:16:26;;;;;;;7.82;5.18;;;16.40;99.90;;;;;;4938800;29;20318;-85
2023/07/26 00:18:52;;;;;;;6.93;4.53;;;;;;;;;;4956152;29;20187;-86
2023/07/26 00:21:18;;;;;;;9.40;5.57;;;;;;;;;;4955936;29;20183;-86
2023/07/26 00:23:44;;;;;;;11.13;5.60;;;16.60;99.90;;;;;;4955977;29;20196;-86
2023/07/26 00:26:10;;;;;;;6.75;4.80;;;;;;;;;;4923390;29;20183;-86
2023/07/26 00:28:35;;;;;;;8.68;5.40;;;17.10;99.90;;;;;;4955524;29;20269;-86
2023/07/26 00:31:01;;;;;;;9.13;5.85;;;16.70;99.90;;;;;;4907635;29;20215;-85
2023/07/26 00:33:27;;;;;;;9.95;5.70;;;16.20;99.90;;;;;;4923169;29;20191;-85
2023/07/26 00:35:52;;;;;;;9.20;6.10;;;16.60;99.90;;;;;;4922611;29;20223;-85
2023/07/26 00:38:18;;;;;;;8.38;5.70;;;;;;;;;;4955510;29;20191;-85
2023/07/26 00:40:44;;;;;;;9.38;5.63;;;16.60;99.90;;;;;;4939282;29;20187;-85
2023/07/26 00:43:10;;;;;;;8.75;6.13;;;;;;;;;;4938621;29;20191;-86
2023/07/26 00:45:40;;;;;;;7.65;5.93;;;16.20;99.90;;;;;;4922742;29;20206;-86
2023/07/26 00:48:06;;;;;;;9.70;6.35;;;16.60;99.90;;;;;;4956014;29;20181;-85
2023/07/26 00:50:32;;;;;;;11.05;5.95;;;16.90;99.90;;;;;;4938436;29;20186;-85
2023/07/26 00:52:58;;;;;;;9.70;5.93;;;16.70;99.90;;;;;;4955483;29;20671;-85
2023/07/26 00:55:24;;;;;;;10.20;6.55;;;16.90;99.90;;;;;;4938404;29;20191;-85
2023/07/26 00:57:50;;;;;;;13.65;5.88;;;16.60;99.90;;;;;;4922437;29;20214;-85
2023/07/26 01:00:18;;;;;;;10.65;6.03;;;16.60;99.90;;;;;;4938369;29;20183;-86
2023/07/26 01:02:44;;;;;;;9.50;6.05;;;16.60;99.90;;;;;;4955858;29;20645;-85
2023/07/26 01:05:10;;;;;;;12.30;6.28;;;16.50;99.90;;;;;;4922838;29;20187;-85
2023/07/26 01:07:50;;;;;;;7.30;5.93;;;16.50;99.90;;;;;;4937917;29;20175;-85
2023/07/26 01:10:23;;;;;;;8.15;6.05;;;16.50;99.90;;;;;;4955675;29;20185;-85
2023/07/26 01:12:59;;;;;;;7.60;5.78;;;16.00;99.90;;;;;;4938411;29;20234;-85
2023/07/26 01:15:30;;;;;;;11.48;6.07;;;15.80;99.90;;;;;;4955282;29;20171;-85
2023/07/26 01:18:16;;;;;;;21.00;7.63;;;16.10;99.90;;;;;;4937906;29;20186;-85
2023/07/26 01:20:42;;;;;;;9.50;5.53;;;16.30;99.90;;;;;;4937997;29;20179;-85
2023/07/26 01:23:08;;;;;;;9.10;6.40;;;16.20;99.90;;;;;;4938136;29;20207;-85
2023/07/26 01:25:34;;;;;;;7.40;5.25;;;16.40;99.90;;;;;;4937792;29;20215;-85
2023/07/26 01:28:00;;;;;;;12.57;6.05;;;16.50;99.90;;;;;;4937635;29;20646;-85
2023/07/26 01:30:30;;;;;;;9.70;5.90;;;16.00;99.90;;;;;;4922124;29;20265;-85
2023/07/26 01:33:00;;;;;;;10.77;6.35;;;16.20;99.90;;;;;;4955280;29;20189;-85
2023/07/26 01:35:28;;;;;;;12.02;6.75;;;16.00;99.90;;;;;;4954961;29;20171;-85
2023/07/26 01:37:54;;;;;;;8.65;5.30;;;16.20;99.90;;;;;;4955157;29;20191;-85
2023/07/26 01:40:21;;;;;;;8.95;5.88;;;16.30;99.90;;;;;;4937848;29;20235;-85
2023/07/26 01:42:48;;;;;;;11.50;6.13;;;16.10;99.90;;;;;;4937906;29;20194;-85
2023/07/26 01:45:14;;;;;;;10.13;5.57;;;15.90;99.90;;;;;;4955007;29;20195;-84
2023/07/26 01:47:40;;;;;;;13.27;6.97;;;16.20;99.90;;;;;;4955113;29;20219;-85
2023/07/26 01:50:07;;;;;;;10.70;5.95;;;16.00;99.90;;;;;;4937847;29;20254;-85
2023/07/26 01:52:33;;;;;;;14.60;5.82;;;16.20;99.90;;;;;;4954643;29;20246;-86
2023/07/26 01:54:59;;;;;;;7.72;5.38;;;16.30;99.90;;;;;;4921913;29;20633;-85
2023/07/26 01:57:25;;;;;;;7.07;5.07;;;15.80;99.90;;;;;;4954459;29;20232;-85
2023/07/26 01:59:51;;;;;;;13.00;6.65;;;15.50;99.90;;;;;;4954971;29;20731;-85
2023/07/26 02:02:17;;;;;;;9.75;6.30;;;16.10;99.90;;;;;;4955004;29;20186;-86
2023/07/26 02:04:44;;;;;;;7.55;5.63;;;;;;;;;;4937727;29;20629;-85
2023/07/26 02:07:10;;;;;;;9.38;5.35;;;16.00;99.90;;;;;;4954824;29;20194;-85
2023/07/26 02:09:36;;;;;;;9.82;5.53;;;15.50;99.90;;;;;;4922409;29;20187;-85
2023/07/26 02:12:02;;;;;;;9.30;5.53;;;15.70;99.90;;;;;;4958305;29;20649;-85
2023/07/26 02:14:28;;;;;;;15.60;5.65;;;;;;;;;;4958103;29;20176;-85
2023/07/26 02:16:53;;;;;;;7.10;5.55;;;16.00;99.90;;;;;;4958412;29;20257;-85
2023/07/26 02:19:19;;;;;;;14.85;5.53;;;15.90;99.90;;;;;;4941021;29;20277;-85
2023/07/26 02:21:45;;;;;;;11.07;6.20;;;16.00;99.90;;;;;;4940967;29;20191;-85
2023/07/26 02:24:11;;;;;;;12.13;6.40;;;16.10;99.90;;;;;;4941164;29;20187;-85
2023/07/26 02:26:37;;;;;;;10.73;5.60;;;;;;;;;;4958183;29;20194;-86
2023/07/26 02:29:02;;;;;;;7.97;5.03;;;15.80;99.90;;;;;;4940677;29;20231;-85
2023/07/26 02:31:29;;;;;;;14.48;6.07;;;;;;;;;;4909251;29;20207;-86
2023/07/26 02:33:54;;;;;;;12.68;5.07;;;16.20;99.90;;;;;;4940891;29;20274;-85
2023/07/26 02:36:20;;;;;;;8.63;5.40;;;;;;;;;;4940863;29;20294;-85
2023/07/26 02:38:46;;;;;;;8.32;5.22;;;15.80;99.90;;;;;;4924930;29;20631;-85
2023/07/26 02:41:12;;;;;;;8.07;5.22;;;;;;;;;;4925026;29;20226;-86
2023/07/26 02:43:38;;;;;;;7.60;5.15;;;15.60;99.90;;;;;;4957502;29;20210;-85
2023/07/26 02:46:03;;;;;;;7.78;4.95;;;15.80;99.90;;;;;;4940776;29;20625;-85
2023/07/26 02:48:29;;;;;;;9.32;4.88;;;15.70;99.90;;;;;;4957708;29;20191;-87
2023/07/26 02:50:55;;;;;;;9.10;5.80;;;15.70;99.90;;;;;;4940905;29;20183;-85
2023/07/26 02:53:21;;;;;;;8.07;5.43;;;15.50;99.90;;;;;;4924715;29;20258;-85
2023/07/26 02:55:47;;;;;;;16.65;5.63;;;15.60;99.90;;;;;;4940350;29;20241;-86
2023/07/26 02:58:12;;;;;;;11.38;5.22;;;15.70;99.90;;;;;;4924555;29;20215;-85
2023/07/26 03:00:38;;;;;;;10.23;5.47;;;15.50;99.90;;;;;;4940463;29;20598;-86
2023/07/26 03:03:04;;;;;;;7.20;5.78;;;;;;;;;;4957740;29;20253;-85
2023/07/26 03:05:30;;;;;;;8.32;5.18;;;15.80;99.90;;;;;;4957441;29;20214;-85
2023/07/26 03:07:56;;;;;;;9.43;5.25;;;16.00;99.90;;;;;;4940371;29;20266;-85
2023/07/26 03:10:22;;;;;;;9.35;4.85;;;15.30;99.90;;;;;;4940463;29;20219;-85
2023/07/26 03:12:47;;;;;;;10.07;5.10;;;15.60;99.90;;;;;;4924085;29;20183;-85
2023/07/26 03:15:13;;;;;;;7.20;5.03;;;;;;;;;;4940352;29;20551;-85
2023/07/26 03:17:39;;;;;;;8.63;5.45;;;15.70;99.90;;;;;;4957181;29;20226;-85
2023/07/26 03:20:06;;;;;;;8.63;5.38;;;15.50;99.90;;;;;;4924360;28;20191;-85
2023/07/26 03:22:31;;;;;;;7.65;4.95;;;15.90;99.90;;;;;;4939146;29;20266;-85
2023/07/26 03:24:57;;;;;;;7.70;5.88;;;;;;;;;;4940028;29;20653;-87
2023/07/26 03:27:23;;;;;;;9.55;6.38;;;15.50;99.90;;;;;;4939881;29;20191;-85
2023/07/26 03:29:49;;;;;;;6.47;4.65;;;;;;;;;;4957152;29;20601;-84
2023/07/26 03:32:15;;;;;;;12.88;6.13;;;15.70;99.90;;;;;;4956865;28;20656;-86
2023/07/26 03:34:41;;;;;;;13.52;5.70;;;;;;;;;;4949532;28;20199;-87
2023/07/26 03:37:08;;;;;;;7.18;5.30;;;15.50;99.90;;;;;;4954125;28;20651;-85
2023/07/26 03:39:34;;;;;;;8.85;5.38;;;15.50;99.90;;;;;;4955771;28;20201;-88
2023/07/26 03:42:00;;;;;;;11.82;5.72;;;15.70;99.90;;;;;;4937867;28;20571;-88
2023/07/26 03:44:26;;;;;;;15.07;5.60;;;;;;;;;;4938251;29;20219;-89
2023/07/26 03:46:52;;;;;;;9.13;6.05;;;16.00;99.90;;;;;;4918562;29;20219;-88
2023/07/26 03:49:18;;;;;;;13.55;6.30;;;15.90;99.90;;;;;;4932520;29;20218;-90
2023/07/26 03:51:45;;;;;;;9.80;5.78;;;15.80;99.90;;;;;;4940931;28;20192;-89
2023/07/26 03:54:10;;;;;;;12.93;6.30;;;15.70;99.90;;;;;;4969475;28;20175;-89
2023/07/26 03:56:39;;;;;;;11.65;6.13;;;15.80;99.90;;;;;;4970609;28;20334;-91
2023/07/26 03:59:05;;;;;;;7.95;5.45;;;;;;;;;;4932122;29;20192;-90
2023/07/26 04:01:31;;;;;;;6.88;5.13;;;;;;;;;;4930363;29;20293;-90
2023/07/26 04:03:57;;;;;;;7.13;5.25;;;;;;;;;;4934160;29;20609;-90
2023/07/26 04:06:23;;;;;;;8.35;5.47;;;;;;;;;;4946155;28;20653;-89
2023/07/26 04:08:50;;;;;;;9.15;6.57;;;;;;;;;;4942238;28;20194;-94
2023/07/26 04:11:16;;;;;;;7.32;5.35;;;;;;;;;;4981868;28;20190;-93
2023/07/26 04:13:42;;;;;;;8.25;5.88;;;;;;;;;;4925108;28;20270;-93
2023/07/26 04:16:16;;;;;;;7.00;5.50;;;16.10;99.90;;;;;;4937943;29;20235;-94
2023/07/26 04:18:45;;;;;;;15.38;5.40;;;;;;;;;;4977308;28;20250;-91
2023/07/26 04:21:16;;;;;;;11.32;5.95;;;16.20;99.90;;;;;;4951792;29;20187;-91
2023/07/26 04:23:43;;;;;;;14.65;5.55;;;16.30;99.90;;;;;;4925642;29;20649;-90
2023/07/26 04:26:09;;;;;;;16.08;6.10;;;16.30;99.90;;;;;;4951158;28;20203;-92
2023/07/26 04:28:35;;;;;;;11.70;6.53;;;;;;;;;;4964475;28;20235;-91
2023/07/26 04:31:03;;;;;;;8.02;5.57;;;16.40;99.90;;;;;;4966470;28;20187;-91
2023/07/26 04:33:29;;;;;;;7.45;5.30;;;16.20;99.90;;;;;;4934222;29;20619;-89
2023/07/26 04:35:57;;;;;;;10.63;5.68;;;;;;;;;;4952158;29;20298;-92
2023/07/26 04:38:23;;;;;;;8.60;5.57;;;16.30;99.90;;;;;;4962989;28;20222;-92
2023/07/26 04:40:48;;;;;;;11.32;6.43;;;16.40;99.90;;;;;;4958147;28;20193;-96
2023/07/26 04:43:19;;;;;;;7.40;5.22;;;16.50;99.90;;;;;;4945264;28;20253;-93
2023/07/26 04:45:50;;;;;;;9.88;5.68;;;16.60;99.90;;;;;;4928093;29;20227;-96
2023/07/26 04:48:17;;;;;;;13.10;6.22;;;16.60;99.90;;;;;;4925746;29;20187;-93
2023/07/26 04:50:43;;;;;;;8.98;5.75;;;;;;;;;;4932807;29;20246;-96
2023/07/26 04:53:09;;;;;;;10.13;5.85;;;;;;;;;;4962577;28;20179;-93
2023/07/26 04:55:51;;;;;;;7.88;5.78;;;16.70;99.90;;;;;;4978333;28;20203;-93
2023/07/26 04:58:17;;;;;;;11.52;5.97;;;;;;;;;;4988036;28;20178;-93
2023/07/26 05:00:44;;;;;;;9.32;6.00;;;;;;;;;;4942973;28;20522;-88
2023/07/26 05:03:10;;;;;;;13.50;5.95;;;;;;;;;;4936702;28;20249;-88
2023/07/26 05:05:36;;;;;;;10.68;6.43;;;;;;;;;;4968469;28;20187;-88
2023/07/26 05:08:03;;;;;;;10.80;5.88;;;16.30;99.90;;;;;;4936628;29;20187;-88
2023/07/26 05:10:29;;;;;;;9.77;6.20;;;16.40;99.90;;;;;;4937034;29;20183;-90
2023/07/26 05:12:58;;;;;;;10.48;5.93;;;16.40;99.90;;;;;;4984750;28;20186;-89
2023/07/26 05:15:27;;;;;;;10.15;5.63;;;16.50;99.90;;;;;;4943790;29;20206;-89
2023/07/26 05:17:53;;;;;;;10.48;6.28;;;16.60;99.90;;;;;;4969123;28;20225;-87
2023/07/26 05:20:19;;;;;;;10.85;6.45;;;;;;;;;;4947211;28;20214;-91
2023/07/26 05:22:45;;;;;;;9.80;6.47;;;16.60;99.90;;;;;;4943426;28;20670;-90
2023/07/26 05:25:10;;;;;;;7.97;6.25;;;16.50;99.90;;;;;;4925978;28;20198;-89
2023/07/26 05:27:37;;;;;;;11.40;7.43;;;;;;;;;;4937476;29;20223;-91
2023/07/26 05:30:02;;;;;;;11.57;6.28;;;16.80;99.90;;;;;;4960984;28;20194;-90
2023/07/26 05:32:29;;;;;;;14.85;7.22;;;;;;;;;;4973999;28;20190;-89
2023/07/26 05:34:56;;;;;;;11.65;7.55;;;16.80;99.90;;;;;;4930910;29;20190;-91
2023/07/26 05:37:22;;;;;;;10.10;5.93;;;16.50;99.90;;;;;;4940575;28;20212;-91
2023/07/26 05:39:51;;;;;;;11.35;7.35;;;17.00;99.90;;;;;;4941345;28;20187;-91
2023/07/26 05:42:18;;;;;;;9.43;6.68;;;;;;;;;;4946349;28;20554;-91
2023/07/26 05:44:44;;;;;;;11.32;6.93;;;17.00;99.90;;;;;;4957575;28;20178;-89
2023/07/26 05:47:10;;;;;;;14.77;7.03;;;;;;;;;;4951020;29;20659;-91
2023/07/26 05:49:36;;;;;;;10.82;7.13;;;;;;;;;;4940080;28;20519;-90
2023/07/26 05:52:05;;;;;;;8.35;5.68;;;;;;;;;;4938306;28;20188;-90
2023/07/26 05:54:31;;;;;;;8.85;6.43;;;;;;;;;;4933146;28;20188;-92
2023/07/26 05:56:57;;;;;;;8.77;6.75;;;17.00;99.90;;;;;;4962135;28;20207;-90
2023/07/26 05:59:25;;;;;;;14.65;7.10;;;17.20;99.90;;;;;;4962316;28;20171;-90
2023/07/26 06:01:51;;;;;;;12.82;6.25;;;;;;;;;;4948538;28;20278;-91
2023/07/26 06:04:17;;;;;;;9.48;6.13;;;17.60;99.90;;;;;;4973629;28;20183;-91
2023/07/26 06:06:43;;;;;;;11.27;6.63;;;;;;;;;;4941422;28;20916;-91
2023/07/26 06:09:09;;;;;;;9.98;6.60;;;;;;;;;;4930481;29;20187;-92
2023/07/26 06:11:35;;;;;;;9.77;6.10;;;;;;;;;;4944055;28;20187;-91
2023/07/26 06:14:01;;;;;;;9.73;6.20;;;;;;;;;;4972618;28;20656;-91
2023/07/26 06:16:28;;;;;;;9.70;6.55;;;;;;;;;;4957355;28;20221;-93
2023/07/26 06:18:53;;;;;;;8.70;6.00;;;18.30;99.90;;;;;;4967903;28;20188;-92
2023/07/26 06:21:20;;;;;;;9.45;6.47;;;;;;;;;;4932494;29;20354;-93
2023/07/26 06:23:46;;;;;;;8.73;6.05;;;18.60;99.90;;;;;;4940844;28;20214;-91
2023/07/26 06:26:12;;;;;;;9.50;5.80;;;18.90;99.90;;;;;;4949030;28;20196;-93
2023/07/26 06:28:38;;;;;;;11.50;6.20;;;18.80;99.90;;;;;;4939992;28;20725;-92
2023/07/26 06:31:05;;;;;;;10.98;5.82;;;;;;;;;;4974682;28;20248;-91
2023/07/26 06:33:31;;;;;;;6.63;4.60;;;;;;;;;;4960783;28;20194;-92
2023/07/26 06:35:57;;;;;;;8.00;5.53;;;;;;;;;;4953810;29;20210;-91
2023/07/26 06:38:24;;;;;;;9.82;5.30;;;;;;;;;;4963146;28;20700;-92
2023/07/26 06:40:50;;;;;;;7.90;5.18;;;;;;;;;;4961212;28;20186;-92
2023/07/26 06:43:16;;;;;;;6.47;4.53;;;;;;;;;;4963658;28;20211;-91
2023/07/26 06:45:46;;;;;;;6.93;4.25;;;19.60;99.90;;;;;;4997238;28;20183;-90
2023/07/26 06:48:12;;;;;;;6.72;4.70;;;;;;;;;;4929714;29;20198;-90
2023/07/26 06:50:39;;;;;;;9.98;5.35;;;19.70;99.90;;;;;;4940703;29;20180;-91
2023/07/26 06:53:05;;;;;;;12.60;5.03;;;;;;;;;;4953982;28;20279;-90
2023/07/26 06:55:35;;;;;;;5.55;3.90;;;19.80;99.90;;;;;;4953561;28;20183;-91
2023/07/26 06:58:01;;;;;;;6.50;4.35;;;;;;;;;;4943937;28;20195;-90
2023/07/26 07:00:27;;;;;;;5.15;3.72;;;;;;;;;;4935644;28;20178;-91
2023/07/26 07:02:57;;;;;;;6.43;4.10;;;19.70;99.90;;;;;;4947333;29;20609;-90
2023/07/26 07:05:23;;;;;;;12.60;4.55;;;;;;;;;;4941520;29;20187;-90
2023/07/26 07:07:50;;;;;;;10.10;4.70;;;;;;;;;;4938611;29;20184;-91
2023/07/26 07:10:16;;;;;;;7.00;4.18;;;;;;;;;;4942130;29;20258;-91
2023/07/26 07:12:42;;;;;;;6.25;4.28;;;;;;;;;;4938704;29;20656;-90
2023/07/26 07:15:09;;;;;;;9.23;4.68;;;;;;;;;;4957550;28;20229;-90
2023/07/26 07:17:35;;;;;;;8.43;4.13;;;;;;;;;;4950281;29;20271;-90
2023/07/26 07:20:01;;;;;;;6.18;5.00;;;;;;;;;;4974041;28;20201;-91
2023/07/26 07:22:28;;;;;;;6.43;4.57;;;;;;;;;;4946257;29;20188;-90
2023/07/26 07:24:54;;;;;;;8.85;4.70;;;;;;;;;;4959230;28;20176;-90
2023/07/26 07:27:23;;;;;;;7.25;5.15;;;20.40;99.90;;;;;;4952924;29;20206;-89
2023/07/26 07:29:49;;;;;;;5.63;4.20;;;;;;;;;;4961447;28;20266;-88
2023/07/26 07:32:16;;;;;;;9.48;4.53;;;;;;;;;;4957309;28;20195;-88
2023/07/26 07:34:45;;;;;;;8.32;4.03;;;20.40;99.90;;;;;;4981508;28;20184;-90
2023/07/26 07:37:11;;;;;;;6.38;4.55;;;;;;;;;;4931024;29;20208;-89
2023/07/26 07:39:37;;;;;;;6.22;3.80;;;;;;;;;;4937919;29;20736;-89
2023/07/26 07:42:04;;;;;;;8.43;4.68;;;;;;;;;;4940380;29;20187;-91
2023/07/26 07:44:32;;;;;;;9.65;5.38;;;20.30;99.90;;;;;;4951180;28;20234;-90
2023/07/26 07:46:58;;;;;;;7.45;5.60;;;;;;;;;;4932219;29;20188;-90
2023/07/26 07:49:24;;;;;;;6.80;4.30;;;;;;;;;;4936150;28;20223;-89
2023/07/26 07:51:50;;;;;;;5.82;3.88;;;20.00;99.90;;;;;;4951974;29;20183;-89
2023/07/26 07:54:17;;;;;;;5.63;4.38;;;;;;;;;;4938178;29;20194;-89
2023/07/26 07:56:43;;;;;;;6.15;4.78;;;19.90;99.90;;;;;;4935313;29;20582;-89
2023/07/26 07:59:09;;;;;;;7.25;4.85;;;20.30;99.90;;;;;;4951630;28;20191;-89
2023/07/26 08:01:35;;;;;;;6.57;4.85;;;;;;;;;;4951236;28;20188;-89
2023/07/26 08:04:01;;;;;;;5.70;4.22;;;20.10;99.90;;;;;;4935234;28;20191;-90
2023/07/26 08:06:28;;;;;;;6.25;4.30;;;;;;;;;;4919226;28;20215;-90
2023/07/26 08:08:55;;;;;;;6.20;4.30;;;;;;;;;;4922372;29;20231;-89
2023/07/26 08:11:21;;;;;;;6.57;4.45;;;;;;;;;;4934886;29;20184;-90
2023/07/26 08:13:47;;;;;;;7.15;4.70;;;20.20;99.90;;;;;;4934550;29;20191;-89
2023/07/26 08:16:13;;;;;;;9.18;4.32;;;;;;;;;;4918982;29;20582;-89
2023/07/26 08:18:39;;;;;;;6.50;4.13;;;20.50;99.90;;;;;;4935817;28;20671;-90
2023/07/26 08:21:06;;;;;;;6.03;3.95;;;20.70;99.90;;;;;;4970657;28;20179;-89
2023/07/26 08:23:32;;;;;;;6.80;4.80;;;19.50;99.90;;;;;;4923202;28;20187;-90
2023/07/26 08:26:05;;;;;;;9.63;4.75;;;20.90;99.90;;;;;;4923375;29;20191;-89
2023/07/26 08:28:31;;;;;;;6.22;3.97;;;;;;;;;;4964211;28;20248;-90
2023/07/26 08:30:57;;;;;;;5.80;4.00;;;20.60;99.90;;;;;;4947103;28;20226;-90
2023/07/26 08:33:23;;;;;;;7.18;4.57;;;20.70;99.90;;;;;;4969558;28;20191;-89
2023/07/26 08:35:49;;;;;;;9.05;3.80;;;;;;;;;;4965561;28;20179;-90
2023/07/26 08:38:15;;;;;;;6.00;4.18;;;;;;;;;;4926203;29;20203;-89
2023/07/26 08:40:50;;;;;;;4.32;3.50;;;20.60;99.90;;;;;;4936603;28;20255;-90
2023/07/26 08:43:18;;;;;;;5.78;3.72;;;20.80;99.90;;;;;;4941620;28;20187;-91
2023/07/26 08:45:49;;;;;;;5.72;3.88;;;20.70;99.90;;;;;;4982508;28;20185;-89
2023/07/26 08:48:17;;;;;;;6.95;3.88;;;20.80;99.90;;;;;;4939184;29;20278;-89
2023/07/26 08:50:43;;;;;;;4.43;3.60;;;;;;;;;;4928074;29;20184;-89
2023/07/26 08:53:09;;;;;;;5.97;4.28;;;;;;;;;;4950007;28;20180;-91
2023/07/26 08:55:36;;;;;;;8.00;4.30;;;21.20;99.90;;;;;;4925910;29;20188;-89
2023/07/26 08:58:02;;;;;;;7.47;4.53;;;21.00;99.90;;;;;;4951623;28;20204;-89
2023/07/26 09:00:29;;;;;;;8.68;4.43;;;;;;;;;;4969171;28;20215;-90
2023/07/26 09:02:57;;;;;;;5.22;3.85;;;23.30;99.90;;;;;;4953884;28;20199;-89
2023/07/26 09:05:23;;;;;;;6.18;4.57;;;;;;;;;;4950028;28;20180;-89
2023/07/26 09:07:51;;;;;;;5.93;3.90;;;;;;;;;;4926966;29;20203;-90
2023/07/26 09:10:28;;;;;;;4.72;3.72;;;21.10;99.90;;;;;;4956537;28;20183;-90
2023/07/26 09:13:11;;;;;;;4.43;3.33;;;21.30;99.90;;;;;;4931733;29;20636;-91
2023/07/26 09:15:38;;;;;;;4.78;3.38;;;21.50;99.90;;;;;;4919043;29;20211;-92
2023/07/26 09:18:05;;;;;;;5.03;3.47;;;;;;;;;;4950657;28;20187;-91
2023/07/26 09:20:32;;;;;;;5.78;4.10;;;21.80;99.90;;;;;;4937156;29;20184;-92
2023/07/26 09:22:59;;;;;;;5.20;3.60;;;22.00;99.90;;;;;;4963771;28;20202;-92
2023/07/26 09:25:40;;;;;;;7.75;4.15;;;21.90;99.90;;;;;;4972727;28;20190;-93
2023/07/26 09:28:11;;;;;;;12.02;4.95;;;22.10;99.90;;;;;;4942154;29;20230;-91
2023/07/26 09:30:42;;;;;;;4.78;3.20;;;22.50;99.90;;;;;;4928009;29;20223;-92
2023/07/26 09:33:12;;;;;;;3.95;3.00;;;22.80;99.90;;;;;;4928453;29;20192;-92
2023/07/26 09:35:43;;;;;;;5.82;3.97;;;22.80;99.90;;;;;;4955352;28;20253;-88
2023/07/26 09:38:15;;;;;;;5.35;4.35;;;22.60;99.90;;;;;;4934348;29;20199;-91
2023/07/26 09:40:44;;;;;;;4.75;3.28;;;22.50;99.90;;;;;;4927236;28;20180;-92
2023/07/26 09:43:10;;;;;;;4.40;3.20;;;;;;;;;;4954922;29;20183;-93
2023/07/26 09:45:38;;;;;;;4.13;3.03;;;;;;;;;;4975860;28;20219;-91
2023/07/26 09:48:09;;;;;;;3.38;2.65;;;22.10;99.90;;;;;;4992141;28;20266;-90
2023/07/26 09:50:35;;;;;;;5.70;3.40;;;22.20;99.90;;;;;;4942392;29;20190;-89
2023/07/26 09:53:04;;;;;;;3.90;3.00;;;21.90;99.90;;;;;;4939938;28;20192;-91
2023/07/26 09:55:30;;;;;;;3.55;3.25;;;21.80;99.90;;;;;;4972345;28;20187;-92
2023/07/26 09:57:58;;;;;;;3.45;2.83;;;22.10;99.90;;;;;;4924234;28;20222;-90
2023/07/26 10:00:26;;;;;;;4.47;2.97;;;22.00;99.90;;;;;;4933512;29;20184;-90
2023/07/26 10:03:03;;;;;;;5.15;2.85;;;22.00;99.90;;;;;;4933449;29;20250;-91
2023/07/26 10:05:36;;;;;;;3.63;2.80;;;22.30;99.90;;;;;;4944862;28;20179;-90
2023/07/26 10:08:02;;;;;;;6.53;2.72;;;22.20;99.90;;;;;;4972986;28;20236;-92
2023/07/26 10:10:31;;;;;;;3.95;2.67;;;22.20;99.90;;;;;;4968909;28;20195;-92
2023/07/26 10:13:00;;;;;;;5.05;2.40;;;22.20;99.90;;;;;;4925879;29;20195;-91
2023/07/26 10:15:30;;;;;;;4.30;2.47;;;22.30;99.90;;;;;;4968969;28;20184;-92
2023/07/26 10:17:57;;;;;;;4.35;3.35;;;21.90;99.90;;;;;;4920162;29;20266;-91
2023/07/26 10:20:23;;;;;;;5.93;3.00;;;22.10;99.90;;;;;;4935047;28;20180;-91
2023/07/26 10:22:51;;;;;;;3.92;3.03;;;22.10;99.90;;;;;;4953035;28;20187;-89
2023/07/26 10:25:17;;;;;;;4.07;3.13;;;22.30;99.90;;;;;;4933900;28;20192;-89
2023/07/26 10:27:43;;;;;;;3.67;2.75;;;;;;;;;;4953680;29;20191;-89
2023/07/26 10:30:11;;;;;;;4.75;2.85;;;22.40;99.90;;;;;;4936411;29;20228;-90
2023/07/26 10:32:47;;;;;;;4.15;3.17;;;22.40;99.90;;;;;;4914489;29;20219;-90
2023/07/26 10:35:32;;;;;;;3.17;2.25;;;22.50;99.90;;;;;;4932706;29;20184;-90
2023/07/26 10:37:59;;;;;;;2.80;2.50;;;22.40;99.40;;;;;;4940424;29;20208;-89
2023/07/26 10:40:32;;;;;;;4.20;2.58;;;22.70;99.90;;;;;;4939701;29;20196;-90
2023/07/26 10:43:00;;;;;;;2.65;2.33;;;22.20;99.90;;;;;;4930939;29;20641;-90
2023/07/26 10:45:46;;;;;;;3.83;2.78;;;22.10;99.90;;;;;;4933390;29;20251;-91
2023/07/26 10:48:36;;;;;;;3.03;2.40;;;22.30;98.50;;;;;;4956585;29;20192;-92
2023/07/26 10:51:31;;;;;;;3.95;2.80;;;22.20;98.50;;;;;;4937011;29;20251;-91
2023/07/26 10:53:58;;;;;;;4.30;2.47;;;22.20;99.40;;;;;;4930661;29;20276;-92
2023/07/26 10:56:31;;;;;;;2.60;2.33;;;22.10;99.00;;;;;;4921117;29;20686;-91
2023/07/26 10:59:20;;;;;;;2.83;2.55;;;22.10;98.30;;;;;;4931019;29;20192;-89
2023/07/26 11:01:46;;;;;;;4.63;3.20;;;;;;;;;;4921133;29;20222;-91
2023/07/26 11:04:14;;;;;;;3.75;2.45;;;21.90;98.30;;;;;;4921307;29;20220;-89
2023/07/26 11:07:01;;;;;;;3.22;2.50;;;21.90;99.90;;;;;;4918828;29;20208;-90
2023/07/26 11:09:28;;;;;;;3.30;2.50;;;22.00;99.90;;;;;;4960978;28;20196;-90
2023/07/26 11:12:02;;;;;;;3.70;2.78;;;22.40;99.90;;;;;;4926054;29;20183;-89
2023/07/26 11:14:30;;;;;;;2.65;2.45;;;22.30;99.90;;;;;;4937842;29;20222;-90
2023/07/26 11:17:10;;;;;;;3.38;2.55;;;22.10;99.90;;;;;;4922740;29;20701;-93
2023/07/26 11:19:47;;;;;;;4.43;3.08;;;22.10;99.90;;;;;;4940059;29;20731;-91
2023/07/26 11:22:13;;;;;;;2.63;2.00;;;21.80;99.90;;;;;;4942533;29;20189;-90
2023/07/26 11:24:39;;;;;;;1.95;1.80;;;;;;;;;;4917736;29;20216;-89
2023/07/26 11:27:07;;;;;;;4.78;2.28;;;21.70;99.90;;;;;;4960504;28;20198;-89
2023/07/26 11:29:34;;;;;;;2.40;1.85;;;21.80;99.90;;;;;;4926281;29;20255;-91
2023/07/26 11:32:01;;;;;;;1.50;1.30;;;;;;;;;;4964736;28;20200;-89
2023/07/26 11:34:26;;;;;;;2.05;1.85;;;21.60;99.90;;;;;;4931092;29;20204;-89
2023/07/26 11:37:08;;;;;;;2.10;1.50;;;21.60;99.90;;;;;;4923053;29;20333;-90
2023/07/26 11:39:34;;;;;;;2.40;1.90;;;21.50;99.90;;;;;;4966525;28;20200;-90
2023/07/26 11:41:59;;;;;;;2.28;1.60;;;21.50;99.90;;;;;;4972385;28;20272;-90
2023/07/26 11:44:25;;;;;;;4.15;1.88;;;;;;;;;;4918720;29;20219;-90
2023/07/26 11:46:52;;;;;;;1.50;1.40;;;;;;;;;;4936946;29;20188;-88
2023/07/26 11:49:22;;;;;;;1.80;1.67;;;21.40;99.90;;;;;;4937140;29;20219;-89
2023/07/26 11:51:49;;;;;;;3.45;1.90;;;21.40;99.90;;;;;;4918839;29;20184;-90
2023/07/26 11:54:19;;;;;;;2.58;1.92;;;22.60;99.90;;;;;;4916497;29;20615;-91
2023/07/26 11:56:45;;;;;;;2.70;2.28;;;;;;;;;;4941040;29;20211;-91
2023/07/26 11:59:13;;;;;;;3.60;2.28;;;21.40;99.90;;;;;;4936560;29;20279;-89
2023/07/26 12:01:40;;;;;;;4.25;3.08;;;21.40;99.90;;;;;;4949448;28;20216;-91
2023/07/26 12:04:10;;;;;;;4.50;2.80;;;21.60;99.90;;;;;;4917533;29;20176;-89
2023/07/26 12:06:37;;;;;;;2.78;2.00;;;21.50;99.90;;;;;;4962515;28;20331;-89
2023/07/26 12:09:10;;;;;;;2.63;2.15;;;21.60;99.90;;;;;;4925266;29;20183;-90
2023/07/26 12:11:56;;;;;;;2.65;1.75;;;22.30;99.90;;;;;;4922596;29;20220;-90
2023/07/26 12:14:23;;;;;;;2.65;1.60;;;;;;;;;;4915741;29;20187;-90
2023/07/26 12:16:53;;;;;;;2.67;2.20;;;21.60;99.90;;;;;;4918057;29;20204;-91
2023/07/26 12:19:23;;;;;;;2.17;1.88;;;21.60;99.90;;;;;;4925069;29;20191;-90
2023/07/26 12:21:49;;;;;;;2.60;1.88;;;;;;;;;;4936425;29;20275;-89
2023/07/26 12:24:15;;;;;;;4.10;2.30;;;;;;;;;;4934809;29;20214;-89
2023/07/26 12:26:45;;;;;;;2.20;1.85;;;21.60;99.90;;;;;;4924891;29;20223;-89
2023/07/26 12:29:11;;;;;;;2.78;1.88;;;21.30;99.90;;;;;;4917702;29;20228;-89
2023/07/26 12:31:38;;;;;;;3.22;1.77;;;21.00;99.90;;;;;;4926807;29;20192;-90
2023/07/26 12:34:04;;;;;;;2.47;1.55;;;;;;;;;;4917907;29;20255;-90
2023/07/26 12:36:47;;;;;;;3.38;2.20;;;21.30;99.90;;;;;;4915391;29;20327;-90
2023/07/26 12:39:15;;;;;;;2.30;1.70;;;21.00;99.90;;;;;;4962407;28;20557;-90
2023/07/26 12:41:43;;;;;;;1.73;1.55;;;21.20;99.90;;;;;;4941668;28;20623;-90
2023/07/26 12:44:09;;;;;;;3.40;1.58;;;;;;;;;;4925192;29;20283;-90
2023/07/26 12:46:36;;;;;;;2.10;1.90;;;21.20;99.90;;;;;;4966213;28;20261;-89
2023/07/26 12:49:06;;;;;;;2.17;1.45;;;21.10;99.90;;;;;;4966221;28;20192;-90
2023/07/26 12:51:32;;;;;;;1.77;1.67;;;;;;;;;;4944735;29;20244;-88
2023/07/26 12:54:01;;;;;;;3.55;1.77;;;;;;;;;;4917280;29;20200;-91
2023/07/26 12:56:27;;;;;;;2.20;1.95;;;;;;;;;;4951000;28;20681;-90
2023/07/26 12:58:54;;;;;;;1.90;1.80;;;;;;;;;;4918865;29;20207;-90
2023/07/26 13:01:20;;;;;;;2.03;1.67;;;;;;;;;;4930469;29;20292;-89
2023/07/26 13:03:49;;;;;;;3.42;1.92;;;20.60;99.90;;;;;;4935816;29;20266;-88
2023/07/26 13:06:15;;;;;;;6.70;2.20;;;;;;;;;;4937140;29;20192;-90
2023/07/26 13:08:41;;;;;;;2.00;1.80;;;;;;;;;;4955003;28;20192;-90
2023/07/26 13:11:07;;;;;;;3.03;2.53;;;20.00;99.90;;;;;;4927856;29;20191;-92
2023/07/26 13:13:33;;;;;;;2.65;1.70;;;;;;;;;;4934383;29;20180;-90
2023/07/26 13:16:00;;;;;;;2.55;2.03;;;;;;;;;;4927797;29;20360;-88
2023/07/26 13:18:27;;;;;;;2.38;1.95;;;;;;;;;;4976811;28;20211;-90
2023/07/26 13:20:53;;;;;;;3.58;2.17;;;;;;;;;;4924920;29;20176;-89
2023/07/26 13:23:20;;;;;;;3.50;2.10;;;;;;;;;;4952270;28;20542;-90
2023/07/26 13:25:46;;;;;;;2.33;1.80;;;;;;;;;;4943788;28;20183;-91